Time;durP1;ratioP1;P1;durP2;ratioP2;P2;SDS_P1;SDS_P2;PMS_P1;PMS_P2;Temp;Humidity;BMP_temperature;BMP_pressure;BME280_temperature;BME280_humidity;BME280_pressure;Samples;Min_cycle;Max_cycle;Signal;HPM_P1;HPM_P2
2021/06/08 14:55:03;;;;;;;5.35;4.85;;;;;;;;;;5114638;27;20362;-78
2021/06/08 14:57:29;;;;;;;;;;;;;;;;;;5083221;28;20032;-74
2021/06/08 14:59:55;;;;;;;6.30;4.88;;;;;;;;;;5082763;28;19973;-74
2021/06/08 15:02:21;;;;;;;6.37;4.40;;;;;;;;;;5081335;28;20052;-74
2021/06/08 15:04:48;;;;;;;5.32;4.78;;;;;;;;;;5083960;28;20291;-69
2021/06/08 15:07:16;;;;;;;4.80;4.40;;;;;;;;;;5083779;28;20028;-70
2021/06/08 15:09:42;;;;;;;5.10;4.45;;;;;;;;;;5066219;28;20032;-69
2021/06/08 15:12:11;;;;;;;5.97;4.73;;;;;;;;;;5083453;28;20031;-71
2021/06/08 15:14:38;;;;;;;5.32;4.82;;;;;;;;;;5083387;28;20115;-72
2021/06/08 15:17:04;;;;;;;4.80;4.40;;;;;;;;;;5082406;28;20027;-71
2021/06/08 15:19:30;;;;;;;4.77;4.37;;;;;;;;;;5084117;28;20111;-70
2021/06/08 15:21:56;;;;;;;6.83;4.67;;;;;;;;;;5081578;28;20123;-72
2021/06/08 15:24:22;;;;;;;5.18;4.68;;;;;;;;;;5081443;28;20289;-73
2021/06/08 15:26:48;;;;;;;5.10;4.50;;;;;;;;;;5083236;28;20607;-72
2021/06/08 15:29:14;;;;;;;6.07;5.07;;;;;;;;;;5083642;28;20478;-70
2021/06/08 15:31:40;;;;;;;5.93;5.03;;;;;;;;;;5081444;28;20032;-70
2021/06/08 15:34:09;;;;;;;5.20;4.65;;;;;;;;;;5083040;28;20036;-69
2021/06/08 15:36:39;;;;;;;5.03;4.63;;;;;;;;;;5081794;28;20032;-70
2021/06/08 15:39:05;;;;;;;6.72;5.00;;;;;;;;;;5069924;28;20040;-70
2021/06/08 15:41:31;;;;;;;5.80;5.30;;;;;;;;;;5083641;28;20453;-71
2021/06/08 15:43:57;;;;;;;5.13;4.67;;;;;;;;;;5077893;28;20757;-68
2021/06/08 15:46:24;;;;;;;4.90;4.40;;;;;;;;;;5062645;28;20265;-69
2021/06/08 15:48:50;;;;;;;6.63;4.95;;;;;;;;;;5063463;28;20463;-71
2021/06/08 15:51:17;;;;;;;6.67;4.93;;;;;;;;;;5061100;28;20028;-72
2021/06/08 15:53:43;;;;;;;5.30;4.90;;;;;;;;;;5076955;28;20051;-70
2021/06/08 15:56:09;;;;;;;5.63;5.00;;;;;;;;;;5083840;28;20096;-72
2021/06/08 15:58:35;;;;;;;5.32;4.82;;;;;;;;;;5083078;28;20477;-69
2021/06/08 16:01:01;;;;;;;6.90;5.30;;;;;;;;;;5080966;28;20031;-71
2021/06/08 16:03:27;;;;;;;5.43;4.72;;;;;;;;;;5065838;28;20081;-70
2021/06/08 16:05:53;;;;;;;5.70;4.90;;;;;;;;;;5070323;28;20436;-68
2021/06/08 16:08:19;;;;;;;5.20;4.70;;;;;;;;;;5063019;28;20666;-71
2021/06/08 16:10:46;;;;;;;5.05;4.55;;;;;;;;;;5040030;28;20036;-70
2021/06/08 16:13:12;;;;;;;4.80;4.40;;;;;;;;;;5059123;28;20127;-71
2021/06/08 16:15:38;;;;;;;4.63;4.23;;;;;;;;;;5060148;28;20465;-69
2021/06/08 16:18:04;;;;;;;4.85;4.40;;;;;;;;;;5067068;28;20097;-70
2021/06/08 16:20:30;;;;;;;4.97;4.37;;;;;;;;;;5069300;28;20025;-71
2021/06/08 16:22:56;;;;;;;4.53;4.13;;;;;;;;;;5068774;28;20352;-70
2021/06/08 16:25:25;;;;;;;4.67;4.27;;;;;;;;;;5064077;28;20037;-70
2021/06/08 16:27:51;;;;;;;6.95;4.30;;;;;;;;;;5066640;28;20662;-70
2021/06/08 16:30:18;;;;;;;5.47;4.97;;;;;;;;;;5066070;28;20490;-71
2021/06/08 16:32:44;;;;;;;4.70;4.30;;;;;;;;;;5066526;28;20633;-69
2021/06/08 16:35:11;;;;;;;6.53;4.70;;;;;;;;;;5068351;28;20090;-71
2021/06/08 16:37:37;;;;;;;5.90;4.50;;;;;;;;;;5057702;28;20039;-72
2021/06/08 16:40:06;;;;;;;5.60;5.10;;;;;;;;;;5059157;28;20075;-70
2021/06/08 16:42:32;;;;;;;5.10;4.60;;;;;;;;;;5068925;28;20048;-69
2021/06/08 16:44:58;;;;;;;5.78;4.93;;;;;;;;;;5068908;28;20508;-69
2021/06/08 16:47:25;;;;;;;5.20;4.70;;;;;;;;;;5066782;28;20520;-69
2021/06/08 16:49:51;;;;;;;5.30;4.85;;;;;;;;;;5066679;28;20028;-72
2021/06/08 16:55:05;;;;;;;6.22;4.68;;;;;;;;;;5066701;28;20343;-68
2021/06/08 16:57:31;;;;;;;5.57;4.80;;;;;;;;;;5067351;28;20089;-71
2021/06/08 16:59:57;;;;;;;5.78;4.78;;;;;;;;;;5066978;28;20025;-69
2021/06/08 17:02:23;;;;;;;4.83;4.43;;;;;;;;;;5066109;28;20021;-69
2021/06/08 17:04:49;;;;;;;5.27;4.77;;;;;;;;;;5067921;28;20030;-69
2021/06/08 17:07:15;;;;;;;5.80;5.03;;;;;;;;;;5066871;28;20041;-69
2021/06/08 17:09:43;;;;;;;5.43;4.88;;;;;;;;;;5066553;28;20028;-70
2021/06/08 17:12:09;;;;;;;7.85;5.53;;;;;;;;;;5067064;28;20115;-71
2021/06/08 17:14:35;;;;;;;6.63;5.30;;;;;;;;;;5066229;28;20785;-71
2021/06/08 17:17:01;;;;;;;5.82;5.22;;;;;;;;;;5066757;28;20032;-71
2021/06/08 17:19:27;;;;;;;6.65;5.35;;;;;;;;;;5067861;28;20108;-68
2021/06/08 17:21:53;;;;;;;7.90;5.27;;;;;;;;;;5065388;28;20545;-69
2021/06/08 17:24:19;;;;;;;6.18;5.53;;;;;;;;;;5069215;28;20421;-69
2021/06/08 17:26:45;;;;;;;9.43;5.60;;;;;;;;;;5068276;28;20060;-70
2021/06/08 17:29:12;;;;;;;5.63;5.13;;;;;;;;;;5066865;28;20691;-70
2021/06/08 17:31:38;;;;;;;6.85;5.40;;;;;;;;;;5068220;28;20078;-68
2021/06/08 17:34:04;;;;;;;5.70;5.10;;;;;;;;;;5060954;28;20071;-72
2021/06/08 17:36:30;;;;;;;6.23;5.03;;;;;;;;;;5066977;28;20032;-70
2021/06/08 17:38:56;;;;;;;5.85;4.53;;;;;;;;;;5067374;28;20490;-69
2021/06/08 17:41:23;;;;;;;8.07;5.40;;;;;;;;;;5068493;28;20555;-70
2021/06/08 17:43:49;;;;;;;5.60;5.00;;;;;;;;;;5055201;28;20037;-69
2021/06/08 17:46:15;;;;;;;4.78;4.28;;;;;;;;;;5046907;28;20474;-71
2021/06/08 17:48:41;;;;;;;6.10;4.95;;;;;;;;;;5044862;28;20090;-69
2021/06/08 17:51:07;;;;;;;5.60;4.80;;;;;;;;;;5047237;28;20029;-70
2021/06/08 17:53:33;;;;;;;5.53;5.00;;;;;;;;;;5064523;28;20033;-71
2021/06/08 17:56:00;;;;;;;5.30;4.60;;;;;;;;;;5065783;28;20074;-69
2021/06/08 17:58:26;;;;;;;6.28;5.20;;;;;;;;;;5067387;28;20048;-72
2021/06/08 18:00:52;;;;;;;5.35;4.90;;;;;;;;;;5064971;28;20752;-72
2021/06/08 18:03:19;;;;;;;6.07;5.47;;;;;;;;;;5064659;28;20093;-70
2021/06/08 18:05:45;;;;;;;7.57;5.65;;;;;;;;;;5065717;28;20393;-70
2021/06/08 18:08:11;;;;;;;5.78;5.18;;;;;;;;;;5065093;28;20371;-71
2021/06/08 18:10:42;;;;;;;7.03;5.50;;;;;;;;;;5066786;28;20386;-72
2021/06/08 18:13:08;;;;;;;6.97;5.53;;;;;;;;;;5062790;28;20477;-73
2021/06/08 18:15:34;;;;;;;5.80;5.30;;;;;;;;;;5060138;28;20025;-71
2021/06/08 18:18:03;;;;;;;5.73;5.07;;;;;;;;;;5063545;28;20375;-72
2021/06/08 18:20:31;;;;;;;5.65;5.13;;;;;;;;;;5065172;28;20301;-71
2021/06/08 18:22:58;;;;;;;7.32;5.80;;;;;;;;;;5064993;28;20112;-71
2021/06/08 18:25:24;;;;;;;6.60;5.80;;;;;;;;;;5065742;28;20146;-73
2021/06/08 18:27:50;;;;;;;6.85;5.80;;;;;;;;;;5066200;28;20467;-74
2021/06/08 18:30:16;;;;;;;5.67;5.17;;;;;;;;;;5065598;28;20067;-69
2021/06/08 18:32:43;;;;;;;6.00;5.50;;;;;;;;;;5064772;28;20028;-72
2021/06/08 18:35:09;;;;;;;6.35;5.75;;;;;;;;;;5066882;28;20497;-74
2021/06/08 18:37:35;;;;;;;7.85;5.80;;;;;;;;;;5065432;28;20024;-73
2021/06/08 18:40:01;;;;;;;7.00;6.20;;;;;;;;;;5064679;28;20083;-73
2021/06/08 18:42:27;;;;;;;6.80;6.10;;;;;;;;;;5065189;28;20105;-76
2021/06/08 18:44:53;;;;;;;8.40;6.13;;;;;;;;;;5065961;28;20337;-71
2021/06/08 18:47:19;;;;;;;6.68;6.07;;;;;;;;;;5053775;28;20274;-71
2021/06/08 18:49:45;;;;;;;6.53;5.88;;;;;;;;;;5045121;28;20482;-72
2021/06/08 18:52:11;;;;;;;7.63;6.90;;;;;;;;;;5028665;28;20029;-74
2021/06/08 18:54:37;;;;;;;7.47;6.70;;;;;;;;;;5056865;28;20055;-74
2021/06/08 18:57:05;;;;;;;6.60;5.63;;;;;;;;;;5065251;28;20023;-72
2021/06/08 18:59:31;;;;;;;7.18;5.82;;;;;;;;;;5066946;28;20103;-71
2021/06/08 19:01:57;;;;;;;6.70;5.75;;;;;;;;;;5066092;28;20752;-74
2021/06/08 19:04:25;;;;;;;6.55;5.90;;;;;;;;;;5065713;28;20025;-73
2021/06/08 19:06:54;;;;;;;7.70;6.60;;;;;;;;;;5062797;28;20060;-72
2021/06/08 19:09:20;;;;;;;10.10;6.45;;;;;;;;;;5050320;28;20389;-72
2021/06/08 19:11:46;;;;;;;9.55;7.20;;;;;;;;;;5065691;28;20044;-74
2021/06/08 19:14:12;;;;;;;7.18;6.50;;;;;;;;;;5066094;28;20170;-74
2021/06/08 19:16:39;;;;;;;9.05;6.60;;;;;;;;;;5057601;28;20024;-75
2021/06/08 19:19:05;;;;;;;9.30;7.05;;;;;;;;;;5066344;28;20422;-73
2021/06/08 19:21:33;;;;;;;7.55;6.85;;;;;;;;;;5068073;28;20020;-72
2021/06/08 19:23:59;;;;;;;8.35;6.30;;;;;;;;;;5070460;28;20489;-75
2021/06/08 19:26:26;;;;;;;7.30;5.55;;;;;;;;;;5068298;28;20039;-74
2021/06/08 19:28:52;;;;;;;7.53;5.63;;;;;;;;;;5070501;28;20107;-74
2021/06/08 19:31:18;;;;;;;7.13;5.78;;;;;;;;;;5069958;28;20707;-76
2021/06/08 19:33:44;;;;;;;6.85;6.25;;;;;;;;;;5068326;28;20524;-71
2021/06/08 19:36:10;;;;;;;6.47;5.78;;;;;;;;;;5068235;28;20024;-72
2021/06/08 19:38:37;;;;;;;7.57;6.28;;;;;;;;;;5067383;28;20350;-74
2021/06/08 19:41:03;;;;;;;7.35;6.65;;;;;;;;;;5069003;28;20112;-73
2021/06/08 19:43:29;;;;;;;7.80;6.60;;;;;;;;;;5073585;28;20032;-73
2021/06/08 19:45:55;;;;;;;7.50;6.80;;;;;;;;;;5071501;28;20028;-73
2021/06/08 19:48:21;;;;;;;6.88;6.13;;;;;;;;;;5052770;28;20032;-72
2021/06/08 19:50:47;;;;;;;7.72;6.93;;;;;;;;;;5061015;28;20094;-75
2021/06/08 19:53:13;;;;;;;7.97;6.70;;;;;;;;;;5063231;28;20473;-73
2021/06/08 19:55:39;;;;;;;9.52;6.95;;;;;;;;;;5074386;28;20032;-72
2021/06/08 19:58:05;;;;;;;7.65;6.78;;;;;;;;;;5073315;28;20107;-74
2021/06/08 20:00:31;;;;;;;7.82;7.07;;;;;;;;;;5072260;28;20024;-73
2021/06/08 20:02:59;;;;;;;8.00;7.20;;;;;;;;;;5066067;28;20030;-69
2021/06/08 20:05:25;;;;;;;7.90;7.10;;;;;;;;;;5071432;28;20021;-74
2021/06/08 20:07:51;;;;;;;11.38;8.05;;;;;;;;;;5071674;28;20036;-70
2021/06/08 20:10:18;;;;;;;8.57;7.78;;;;;;;;;;5071183;28;20414;-72
2021/06/08 20:12:44;;;;;;;8.80;8.03;;;;;;;;;;5072386;28;20485;-70
2021/06/08 20:15:10;;;;;;;9.20;8.27;;;;;;;;;;5072658;28;20028;-72
2021/06/08 20:17:36;;;;;;;8.60;7.70;;;;;;;;;;5065979;28;20082;-73
2021/06/08 20:20:03;;;;;;;8.65;7.35;;;;;;;;;;5071511;28;20054;-70
2021/06/08 20:22:29;;;;;;;11.90;8.48;;;;;;;;;;5070970;28;20040;-70
2021/06/08 20:24:55;;;;;;;9.05;8.20;;;;;;;;;;5061870;28;20031;-71
2021/06/08 20:27:21;;;;;;;10.45;8.10;;;;;;;;;;5072947;28;20103;-72
2021/06/08 20:29:47;;;;;;;10.80;8.68;;;;;;;;;;5073013;28;20025;-71
2021/06/08 20:32:13;;;;;;;9.82;8.30;;;;;;;;;;5072854;28;20482;-73
2021/06/08 20:34:39;;;;;;;11.38;9.18;;;;;;;;;;5074197;28;20112;-72
2021/06/08 20:37:05;;;;;;;11.30;9.55;;;;;;;;;;5070886;28;20023;-72
2021/06/08 20:39:32;;;;;;;10.88;8.95;;;;;;;;;;5066409;28;20032;-73
2021/06/08 20:41:58;;;;;;;10.32;9.32;;;;;;;;;;5071336;28;20461;-72
2021/06/08 20:44:24;;;;;;;10.68;9.57;;;;;;;;;;5072476;28;20388;-72
2021/06/08 20:46:51;;;;;;;9.35;8.55;;;;;;;;;;5065071;28;20039;-68
2021/06/08 20:49:17;;;;;;;9.73;8.73;;;;;;;;;;5063541;28;20039;-71
2021/06/08 20:51:43;;;;;;;11.17;10.07;;;;;;;;;;5067364;28;20033;-71
2021/06/08 20:54:09;;;;;;;11.17;10.03;;;;;;;;;;5052419;28;20060;-71
2021/06/08 20:56:35;;;;;;;9.50;8.50;;;;;;;;;;5071528;28;20037;-72
2021/06/08 20:59:01;;;;;;;10.70;8.88;;;;;;;;;;5066581;28;20017;-71
2021/06/08 21:01:27;;;;;;;12.63;9.45;;;;;;;;;;5069367;28;20405;-70
2021/06/08 21:03:53;;;;;;;10.70;9.60;;;;;;;;;;5072760;28;20058;-70
2021/06/08 21:06:19;;;;;;;10.13;9.13;;;;;;;;;;5070839;28;20025;-70
2021/06/08 21:08:45;;;;;;;9.60;8.60;;;;;;;;;;5071847;28;20096;-67
2021/06/08 21:11:11;;;;;;;11.45;9.50;;;;;;;;;;5072344;28;20168;-72
2021/06/08 21:13:40;;;;;;;10.52;8.68;;;;;;;;;;5063835;28;20029;-71
2021/06/08 21:16:06;;;;;;;10.25;9.27;;;;;;;;;;4366016;28;10000485;-71
2021/06/08 21:18:32;;;;;;;10.57;9.48;;;;;;;;;;5068306;28;20029;-70
2021/06/08 21:20:58;;;;;;;10.38;9.27;;;;;;;;;;5069181;28;20043;-69
2021/06/08 21:23:24;;;;;;;14.45;9.20;;;;;;;;;;5072306;28;20474;-72
2021/06/08 21:25:50;;;;;;;10.30;9.30;;;;;;;;;;5070967;28;20424;-71
2021/06/08 21:28:17;;;;;;;10.30;9.20;;;;;;;;;;5054792;28;20044;-68
2021/06/08 21:30:44;;;;;;;11.02;9.75;;;;;;;;;;5072881;28;20020;-69
2021/06/08 21:33:10;;;;;;;10.02;9.02;;;;;;;;;;5071439;28;20020;-71
2021/06/08 21:35:36;;;;;;;11.82;9.70;;;;;;;;;;5072747;28;20033;-69
2021/06/08 21:38:02;;;;;;;10.60;9.60;;;;;;;;;;5070671;28;20032;-71
2021/06/08 21:40:28;;;;;;;9.75;8.85;;;;;;;;;;5069906;28;20830;-69
2021/06/08 21:42:54;;;;;;;10.75;9.60;;;;;;;;;;5069370;28;20520;-73
2021/06/08 21:45:20;;;;;;;10.23;9.32;;;;;;;;;;5070670;28;20025;-71
2021/06/08 21:47:46;;;;;;;13.25;9.13;;;;;;;;;;5070466;28;20481;-72
2021/06/08 21:50:12;;;;;;;10.48;9.43;;;;;;;;;;5066898;28;20028;-70
2021/06/08 21:52:39;;;;;;;12.27;9.95;;;;;;;;;;5062244;28;20060;-70
2021/06/08 21:55:06;;;;;;;11.33;10.00;;;;;;;;;;5045787;28;20028;-73
2021/06/08 21:57:32;;;;;;;10.35;9.40;;;;;;;;;;5059110;28;20019;-71
2021/06/08 21:59:58;;;;;;;10.45;9.38;;;;;;;;;;5042613;28;20035;-69
2021/06/08 22:02:24;;;;;;;10.57;9.55;;;;;;;;;;5058026;28;20092;-70
2021/06/08 22:04:52;;;;;;;11.10;9.40;;;;;;;;;;5059968;28;20039;-71
2021/06/08 22:07:25;;;;;;;12.15;10.85;;;;;;;;;;5064605;28;20027;-69
2021/06/08 22:09:52;;;;;;;11.32;10.23;;;;;;;;;;5058989;28;20098;-71
2021/06/08 22:12:18;;;;;;;11.75;9.88;;;;;;;;;;5061225;28;20035;-70
2021/06/08 22:14:47;;;;;;;11.60;10.48;;;;;;;;;;5060088;28;20073;-71
2021/06/08 22:17:13;;;;;;;10.55;9.45;;;;;;;;;;5060301;28;20166;-71
2021/06/08 22:19:39;;;;;;;11.93;10.75;;;;;;;;;;5062043;28;20476;-70
2021/06/08 22:22:05;;;;;;;10.50;9.40;;;;;;;;;;5061540;28;20075;-73
2021/06/08 22:24:31;;;;;;;12.98;10.40;;;;;;;;;;5039601;28;20036;-70
2021/06/08 22:26:57;;;;;;;11.45;10.20;;;;;;;;;;5060934;28;20028;-72
2021/06/08 22:29:23;;;;;;;11.63;10.43;;;;;;;;;;5070835;28;20050;-73
2021/06/08 22:31:49;;;;;;;12.73;9.70;;;;;;;;;;5071420;28;20654;-70
2021/06/08 22:34:15;;;;;;;10.93;9.50;;;;;;;;;;5069730;28;20393;-72
2021/06/08 22:36:41;;;;;;;10.98;9.98;;;;;;;;;;5069850;28;20024;-69
2021/06/08 22:39:07;;;;;;;11.63;9.60;;;;;;;;;;5069735;28;20466;-71
2021/06/08 22:41:36;;;;;;;10.57;9.45;;;;;;;;;;5068721;28;20021;-71
2021/06/08 22:44:03;;;;;;;10.60;9.68;;;;;;;;;;5068676;28;20048;-69
2021/06/08 22:46:29;;;;;;;12.07;10.00;;;;;;;;;;5070812;28;20040;-68
2021/06/08 22:48:55;;;;;;;11.88;10.32;;;;;;;;;;5069867;28;20124;-69
2021/06/08 22:51:21;;;;;;;10.85;9.85;;;;;;;;;;5070968;28;20390;-70
2021/06/08 22:53:47;;;;;;;11.80;10.60;;;;;;;;;;5070384;28;20068;-73
2021/06/08 22:56:13;;;;;;;12.38;11.10;;;;;;;;;;5071016;28;20386;-68
2021/06/08 22:58:39;;;;;;;15.15;11.43;;;;;;;;;;5069171;28;20024;-68
2021/06/08 23:01:05;;;;;;;11.85;10.65;;;;;;;;;;5052902;28;20827;-70
2021/06/08 23:03:32;;;;;;;11.95;10.80;;;;;;;;;;5070469;28;20024;-70
2021/06/08 23:05:58;;;;;;;11.57;10.47;;;;;;;;;;5068647;28;20488;-71
2021/06/08 23:08:24;;;;;;;12.32;10.85;;;;;;;;;;5070080;28;20028;-70
2021/06/08 23:10:50;;;;;;;16.38;10.52;;;;;;;;;;5068159;28;20028;-69
2021/06/08 23:13:18;;;;;;;11.43;9.95;;;;;;;;;;5070610;28;20532;-70
2021/06/08 23:15:44;;;;;;;11.60;10.50;;;;;;;;;;5071848;28;20039;-72
2021/06/08 23:18:10;;;;;;;12.27;11.00;;;;;;;;;;5074212;28;20013;-69
2021/06/08 23:20:36;;;;;;;12.52;11.27;;;;;;;;;;5075031;28;20036;-72
2021/06/08 23:23:02;;;;;;;13.45;11.57;;;;;;;;;;5073750;28;20024;-71
2021/06/08 23:25:28;;;;;;;11.63;10.43;;;;;;;;;;5072869;28;20017;-72
2021/06/08 23:27:54;;;;;;;14.23;10.70;;;;;;;;;;5071530;28;20097;-70
2021/06/08 23:30:20;;;;;;;11.52;10.50;;;;;;;;;;5072811;28;20021;-72
2021/06/08 23:32:46;;;;;;;11.55;10.25;;;;;;;;;;5074028;28;20622;-69
2021/06/08 23:35:13;;;;;;;12.30;11.00;;;;;;;;;;5074119;28;20138;-69
2021/06/08 23:37:39;;;;;;;14.05;11.10;;;;;;;;;;5072991;28;20478;-73
2021/06/08 23:40:05;;;;;;;12.00;10.30;;;;;;;;;;5073658;28;20057;-71
2021/06/08 23:42:31;;;;;;;12.73;11.00;;;;;;;;;;5055519;28;20023;-70
2021/06/08 23:44:57;;;;;;;14.55;10.98;;;;;;;;;;5073589;28;20063;-70
2021/06/08 23:47:23;;;;;;;13.60;10.55;;;;;;;;;;5054325;28;20029;-72
2021/06/08 23:49:49;;;;;;;13.73;11.85;;;;;;;;;;5073444;28;20025;-72
2021/06/08 23:52:18;;;;;;;13.25;12.00;;;;;;;;;;5073744;28;20441;-71
2021/06/08 23:54:44;;;;;;;14.00;12.30;;;;;;;;;;5071585;28;20090;-69
2021/06/08 23:57:10;;;;;;;11.88;10.77;;;;;;;;;;5071091;28;20024;-71
2021/06/08 23:59:36;;;;;;;15.93;11.70;;;;;;;;;;5073301;28;20396;-73
